Gorham, NH

2:01 AM EDT on September 16, 2014 (GMT -0400)
Mount Washington Regional | Change Station
CLOSE
Current Station
Airport
Location: Whitefield,
Elevation: 1073 ft
Nearby Weather Stations

Elev 1073 ft 44.37 °N, 71.54 °W | Updated 9 minutes ago

Overcast
Overcast
46 °F
Feels Like 46 °F
N
0
Wind Variable Wind from North

Today
High -- | Low -- °F
--% Chance of Precip.
Yesterday
High -- | Low -- °F
Precip. -- in
6:25 AM 6:54 PM
Waning Gibbous, 48% visible
Pressure 30.08 in
Visibility 10.0 miles
Clouds Few 8000 ft
Overcast 9500 ft
Dew Point 44 °F
Humidity 93%
Rainfall 0.01 in
Snow Depth Not available.
UV 0 out of 12
Pollen 1.70 out of 12
Air Quality Not available.
Flu Activity Not available.
METAR KHIE 160552Z AUTO 00000KT 10SM FEW080 OVC095 08/07 A3006 RMK AO2 RAE04B21E41 SLP184 P0000 60001 T00780067 10094 20072 58007

More Conditions Fewer Conditions

Pressure 30.08 in
Visibility 10.0 miles
Clouds Few 8000 ft
Overcast 9500 ft
Dew Point 44 °F
Humidity 93%
Rainfall 0.01 in
Snow Depth Not available.
UV 0 out of 12
Pollen 1.70 out of 12
Air Quality Not available.
Flu Activity Not available.
METAR KHIE 160552Z AUTO 00000KT 10SM FEW080 OVC095 08/07 A3006 RMK AO2 RAE04B21E41 SLP184 P0000 60001 T00780067 10094 20072 58007

More Conditions Fewer Conditions

10-Day Weather Forecast

Almanac

Astronomy

Sep. 16, 2014 Rise Set
Actual Time 6:25 AM EDT 6:54 PM EDT
Civil Twilight 5:56 AM EDT 7:23 PM EDT
Nautical Twilight 5:21 AM EDT 7:57 PM EDT
Astronomical Twilight 4:46 AM EDT 8:33 PM EDT
Moon No Moon Rise 2:25 PM EDT
Length of Visible Light 13h 27m
Length of Day
12h 28m
Tomorrow will be 3m 2s shorter.
Waning Gibbous, 48% of the Moon is Illuminated
Today
Waning Gibbous
Sep 24
New
Oct 1
First Quarter
Oct 8
Full
Oct 15
Last Quarter

Today's Extremes

State Highs State Lows

Community

WunderPhotos

Upload Photos

1,753,702 photos uploaded!

Nearby

Air Quality

  Air Quality AQ Index Pollutant
Tuesday Good
PM2.5
Tuesday Good
OZONE

Snow Depth

Station Depth Elevation
No new snow has been reported.

Earthquake Activity

City Distance Mag. Time & Date
No recent earthquake activity has been reported nearby.
Minimum magnitude displayed is 2.5.

Coastal Water Temperatures

Place Temperature
No Stations Reporting

Nearby Weather Stations